Terminal Aerodrome Forecast
Issued by NWS

Current Version | Previous Version | Graphics & Text | Print | Product List | Glossary On
Versions: 1 2 3 4 5 6 7 8 9 10 11 12 13 14 15 16 17 18
000
FTUS41 KPBZ 220522
TAFMGW
TAF
KMGW 220522Z 2206/2306 17008KT P6SM OVC070
     FM221000 21008KT P6SM VCSH OVC025
     FM221400 31003KT P6SM BKN025
     FM221600 25007KT P6SM BKN050=

USA.gov is the U.S. government's official web portal to all federal, state and local government web resources and services.